sensor_id;sensor_type;location;lat;lon;timestamp;P1;durP1;ratioP1;P2;durP2;ratioP2
6089;SDS011;3073;42.660;23.316;2023-02-26T00:00:08;17.63;;;5.00;;
6089;SDS011;3073;42.660;23.316;2023-02-26T00:02:39;15.90;;;5.00;;
6089;SDS011;3073;42.660;23.316;2023-02-26T00:05:08;20.10;;;5.23;;
6089;SDS011;3073;42.660;23.316;2023-02-26T00:07:35;19.13;;;5.03;;
6089;SDS011;3073;42.660;23.316;2023-02-26T00:10:02;17.30;;;5.50;;
6089;SDS011;3073;42.660;23.316;2023-02-26T00:12:30;19.50;;;5.33;;
6089;SDS011;3073;42.660;23.316;2023-02-26T00:14:58;16.57;;;5.67;;
6089;SDS011;3073;42.660;23.316;2023-02-26T00:17:27;22.73;;;5.00;;
6089;SDS011;3073;42.660;23.316;2023-02-26T00:19:59;15.93;;;4.90;;
6089;SDS011;3073;42.660;23.316;2023-02-26T00:22:29;19.17;;;4.83;;
6089;SDS011;3073;42.660;23.316;2023-02-26T00:24:56;16.80;;;5.20;;
6089;SDS011;3073;42.660;23.316;2023-02-26T00:27:23;13.33;;;4.00;;
6089;SDS011;3073;42.660;23.316;2023-02-26T00:29:50;28.00;;;5.20;;
6089;SDS011;3073;42.660;23.316;2023-02-26T00:32:18;17.10;;;5.20;;
6089;SDS011;3073;42.660;23.316;2023-02-26T00:34:46;17.13;;;4.23;;
6089;SDS011;3073;42.660;23.316;2023-02-26T00:37:17;21.73;;;4.60;;
6089;SDS011;3073;42.660;23.316;2023-02-26T00:39:58;12.70;;;4.80;;
6089;SDS011;3073;42.660;23.316;2023-02-26T00:42:34;19.33;;;4.40;;
6089;SDS011;3073;42.660;23.316;2023-02-26T00:45:02;18.40;;;4.60;;
6089;SDS011;3073;42.660;23.316;2023-02-26T00:47:32;15.00;;;4.77;;
6089;SDS011;3073;42.660;23.316;2023-02-26T00:50:11;14.40;;;4.37;;
6089;SDS011;3073;42.660;23.316;2023-02-26T00:52:43;14.20;;;4.10;;
6089;SDS011;3073;42.660;23.316;2023-02-26T00:55:19;11.13;;;4.57;;
6089;SDS011;3073;42.660;23.316;2023-02-26T00:57:46;20.00;;;4.60;;
6089;SDS011;3073;42.660;23.316;2023-02-26T01:00:13;16.93;;;4.80;;
6089;SDS011;3073;42.660;23.316;2023-02-26T01:02:41;12.60;;;3.33;;
6089;SDS011;3073;42.660;23.316;2023-02-26T01:05:09;26.17;;;4.60;;
6089;SDS011;3073;42.660;23.316;2023-02-26T01:07:39;19.23;;;4.27;;
6089;SDS011;3073;42.660;23.316;2023-02-26T01:10:10;14.57;;;5.50;;
6089;SDS011;3073;42.660;23.316;2023-02-26T01:12:49;18.23;;;4.87;;
6089;SDS011;3073;42.660;23.316;2023-02-26T01:15:16;19.63;;;4.03;;
6089;SDS011;3073;42.660;23.316;2023-02-26T01:17:45;14.23;;;4.00;;
6089;SDS011;3073;42.660;23.316;2023-02-26T01:20:17;30.43;;;4.50;;
6089;SDS011;3073;42.660;23.316;2023-02-26T01:22:48;23.57;;;4.70;;
6089;SDS011;3073;42.660;23.316;2023-02-26T01:25:21;15.10;;;4.00;;
6089;SDS011;3073;42.660;23.316;2023-02-26T01:27:52;20.33;;;4.77;;
6089;SDS011;3073;42.660;23.316;2023-02-26T01:30:21;11.40;;;3.77;;
6089;SDS011;3073;42.660;23.316;2023-02-26T01:32:50;15.83;;;4.57;;
6089;SDS011;3073;42.660;23.316;2023-02-26T01:35:31;11.60;;;4.23;;
6089;SDS011;3073;42.660;23.316;2023-02-26T01:38:09;22.43;;;4.70;;
6089;SDS011;3073;42.660;23.316;2023-02-26T01:43:44;12.60;;;4.37;;
6089;SDS011;3073;42.660;23.316;2023-02-26T01:46:17;12.63;;;4.30;;
6089;SDS011;3073;42.660;23.316;2023-02-26T01:48:51;21.17;;;5.03;;
6089;SDS011;3073;42.660;23.316;2023-02-26T01:54:08;17.20;;;4.30;;
6089;SDS011;3073;42.660;23.316;2023-02-26T01:56:35;18.60;;;4.40;;
6089;SDS011;3073;42.660;23.316;2023-02-26T01:59:05;24.37;;;4.33;;
6089;SDS011;3073;42.660;23.316;2023-02-26T02:01:40;16.03;;;3.10;;
6089;SDS011;3073;42.660;23.316;2023-02-26T02:04:09;9.87;;;3.50;;
6089;SDS011;3073;42.660;23.316;2023-02-26T02:06:39;10.83;;;3.57;;
6089;SDS011;3073;42.660;23.316;2023-02-26T02:09:06;12.57;;;4.10;;
6089;SDS011;3073;42.660;23.316;2023-02-26T02:11:34;24.83;;;5.37;;
6089;SDS011;3073;42.660;23.316;2023-02-26T02:14:10;20.43;;;4.00;;
6089;SDS011;3073;42.660;23.316;2023-02-26T02:16:45;20.57;;;4.67;;
6089;SDS011;3073;42.660;23.316;2023-02-26T02:19:34;21.47;;;4.20;;
6089;SDS011;3073;42.660;23.316;2023-02-26T02:22:32;11.10;;;3.83;;
6089;SDS011;3073;42.660;23.316;2023-02-26T02:25:15;17.17;;;3.90;;
6089;SDS011;3073;42.660;23.316;2023-02-26T02:27:57;13.90;;;3.90;;
6089;SDS011;3073;42.660;23.316;2023-02-26T02:30:33;12.30;;;3.70;;
6089;SDS011;3073;42.660;23.316;2023-02-26T02:33:11;12.17;;;4.20;;
6089;SDS011;3073;42.660;23.316;2023-02-26T02:35:41;12.93;;;4.00;;
6089;SDS011;3073;42.660;23.316;2023-02-26T02:38:14;12.13;;;4.00;;
6089;SDS011;3073;42.660;23.316;2023-02-26T02:40:46;11.07;;;3.80;;
6089;SDS011;3073;42.660;23.316;2023-02-26T02:43:17;13.93;;;4.17;;
6089;SDS011;3073;42.660;23.316;2023-02-26T02:45:49;19.23;;;3.43;;
6089;SDS011;3073;42.660;23.316;2023-02-26T02:48:20;9.23;;;3.10;;
6089;SDS011;3073;42.660;23.316;2023-02-26T02:50:50;17.50;;;3.93;;
6089;SDS011;3073;42.660;23.316;2023-02-26T02:53:23;20.20;;;4.00;;
6089;SDS011;3073;42.660;23.316;2023-02-26T02:55:54;15.80;;;3.80;;
6089;SDS011;3073;42.660;23.316;2023-02-26T02:58:24;14.13;;;4.10;;
6089;SDS011;3073;42.660;23.316;2023-02-26T03:00:55;14.17;;;4.47;;
6089;SDS011;3073;42.660;23.316;2023-02-26T03:03:29;12.13;;;3.40;;
6089;SDS011;3073;42.660;23.316;2023-02-26T03:06:00;19.13;;;4.50;;
6089;SDS011;3073;42.660;23.316;2023-02-26T03:08:29;11.80;;;4.40;;
6089;SDS011;3073;42.660;23.316;2023-02-26T03:11:05;19.73;;;5.60;;
6089;SDS011;3073;42.660;23.316;2023-02-26T03:13:32;16.67;;;3.27;;
6089;SDS011;3073;42.660;23.316;2023-02-26T03:16:04;17.60;;;4.33;;
6089;SDS011;3073;42.660;23.316;2023-02-26T03:18:49;15.20;;;3.80;;
6089;SDS011;3073;42.660;23.316;2023-02-26T03:21:25;19.07;;;3.50;;
6089;SDS011;3073;42.660;23.316;2023-02-26T03:23:57;15.30;;;3.40;;
6089;SDS011;3073;42.660;23.316;2023-02-26T03:26:30;18.60;;;4.50;;
6089;SDS011;3073;42.660;23.316;2023-02-26T03:29:03;28.10;;;4.57;;
6089;SDS011;3073;42.660;23.316;2023-02-26T03:31:40;15.87;;;3.17;;
6089;SDS011;3073;42.660;23.316;2023-02-26T03:34:18;13.50;;;3.80;;
6089;SDS011;3073;42.660;23.316;2023-02-26T03:36:50;24.73;;;3.93;;
6089;SDS011;3073;42.660;23.316;2023-02-26T03:39:24;19.67;;;4.90;;
6089;SDS011;3073;42.660;23.316;2023-02-26T03:41:55;13.27;;;4.07;;
6089;SDS011;3073;42.660;23.316;2023-02-26T03:44:28;15.07;;;4.20;;
6089;SDS011;3073;42.660;23.316;2023-02-26T03:47:01;19.47;;;4.30;;
6089;SDS011;3073;42.660;23.316;2023-02-26T03:49:33;19.33;;;3.90;;
6089;SDS011;3073;42.660;23.316;2023-02-26T03:52:03;17.13;;;3.60;;
6089;SDS011;3073;42.660;23.316;2023-02-26T03:54:32;18.40;;;3.63;;
6089;SDS011;3073;42.660;23.316;2023-02-26T03:57:02;12.93;;;3.23;;
6089;SDS011;3073;42.660;23.316;2023-02-26T03:59:29;23.50;;;3.20;;
6089;SDS011;3073;42.660;23.316;2023-02-26T04:01:57;17.93;;;4.50;;
6089;SDS011;3073;42.660;23.316;2023-02-26T04:04:32;9.67;;;3.40;;
6089;SDS011;3073;42.660;23.316;2023-02-26T04:07:06;18.17;;;4.70;;
6089;SDS011;3073;42.660;23.316;2023-02-26T04:09:33;11.90;;;3.90;;
6089;SDS011;3073;42.660;23.316;2023-02-26T04:12:00;21.97;;;2.83;;
6089;SDS011;3073;42.660;23.316;2023-02-26T04:14:34;15.87;;;3.23;;
6089;SDS011;3073;42.660;23.316;2023-02-26T04:17:01;26.07;;;3.97;;
6089;SDS011;3073;42.660;23.316;2023-02-26T04:19:27;11.00;;;3.40;;
6089;SDS011;3073;42.660;23.316;2023-02-26T04:21:56;35.80;;;5.57;;
6089;SDS011;3073;42.660;23.316;2023-02-26T04:24:22;16.97;;;4.47;;
6089;SDS011;3073;42.660;23.316;2023-02-26T04:26:49;16.23;;;4.10;;
6089;SDS011;3073;42.660;23.316;2023-02-26T04:29:16;30.23;;;3.53;;
6089;SDS011;3073;42.660;23.316;2023-02-26T04:31:43;13.13;;;4.33;;
6089;SDS011;3073;42.660;23.316;2023-02-26T04:34:10;17.93;;;4.00;;
6089;SDS011;3073;42.660;23.316;2023-02-26T04:36:36;11.73;;;3.37;;
6089;SDS011;3073;42.660;23.316;2023-02-26T04:39:06;8.93;;;3.70;;
6089;SDS011;3073;42.660;23.316;2023-02-26T04:41:34;15.70;;;3.37;;
6089;SDS011;3073;42.660;23.316;2023-02-26T04:44:02;19.73;;;4.77;;
6089;SDS011;3073;42.660;23.316;2023-02-26T04:46:29;15.63;;;3.50;;
6089;SDS011;3073;42.660;23.316;2023-02-26T04:48:56;20.83;;;3.90;;
6089;SDS011;3073;42.660;23.316;2023-02-26T04:51:23;9.10;;;2.77;;
6089;SDS011;3073;42.660;23.316;2023-02-26T04:53:50;15.90;;;4.30;;
6089;SDS011;3073;42.660;23.316;2023-02-26T04:56:19;16.77;;;4.37;;
6089;SDS011;3073;42.660;23.316;2023-02-26T04:58:46;15.20;;;3.80;;
6089;SDS011;3073;42.660;23.316;2023-02-26T05:01:12;19.03;;;4.90;;
6089;SDS011;3073;42.660;23.316;2023-02-26T05:03:39;13.03;;;3.90;;
6089;SDS011;3073;42.660;23.316;2023-02-26T05:06:07;23.03;;;3.50;;
6089;SDS011;3073;42.660;23.316;2023-02-26T05:08:34;11.63;;;3.40;;
6089;SDS011;3073;42.660;23.316;2023-02-26T05:11:01;10.17;;;3.87;;
6089;SDS011;3073;42.660;23.316;2023-02-26T05:13:30;17.77;;;4.07;;
6089;SDS011;3073;42.660;23.316;2023-02-26T05:15:56;13.17;;;5.10;;
6089;SDS011;3073;42.660;23.316;2023-02-26T05:18:23;22.50;;;4.03;;
6089;SDS011;3073;42.660;23.316;2023-02-26T05:20:51;21.37;;;3.70;;
6089;SDS011;3073;42.660;23.316;2023-02-26T05:23:18;21.00;;;4.43;;
6089;SDS011;3073;42.660;23.316;2023-02-26T05:25:46;22.00;;;3.90;;
6089;SDS011;3073;42.660;23.316;2023-02-26T05:28:14;23.60;;;4.23;;
6089;SDS011;3073;42.660;23.316;2023-02-26T05:30:43;20.00;;;4.40;;
6089;SDS011;3073;42.660;23.316;2023-02-26T05:33:10;15.17;;;3.80;;
6089;SDS011;3073;42.660;23.316;2023-02-26T05:35:37;20.90;;;4.90;;
6089;SDS011;3073;42.660;23.316;2023-02-26T05:38:03;24.33;;;3.53;;
6089;SDS011;3073;42.660;23.316;2023-02-26T05:40:30;27.87;;;3.80;;
6089;SDS011;3073;42.660;23.316;2023-02-26T05:42:57;16.83;;;4.27;;
6089;SDS011;3073;42.660;23.316;2023-02-26T05:45:25;23.77;;;3.37;;
6089;SDS011;3073;42.660;23.316;2023-02-26T05:47:53;13.80;;;3.87;;
6089;SDS011;3073;42.660;23.316;2023-02-26T05:50:20;14.20;;;4.00;;
6089;SDS011;3073;42.660;23.316;2023-02-26T05:52:47;22.13;;;4.80;;
6089;SDS011;3073;42.660;23.316;2023-02-26T05:55:14;22.73;;;3.97;;
6089;SDS011;3073;42.660;23.316;2023-02-26T05:57:41;23.33;;;4.80;;
6089;SDS011;3073;42.660;23.316;2023-02-26T06:00:09;28.30;;;6.23;;
6089;SDS011;3073;42.660;23.316;2023-02-26T06:02:36;24.13;;;5.27;;
6089;SDS011;3073;42.660;23.316;2023-02-26T06:05:06;18.47;;;3.57;;
6089;SDS011;3073;42.660;23.316;2023-02-26T06:07:34;25.30;;;3.60;;
6089;SDS011;3073;42.660;23.316;2023-02-26T06:10:01;19.03;;;4.93;;
6089;SDS011;3073;42.660;23.316;2023-02-26T06:12:28;24.17;;;4.77;;
6089;SDS011;3073;42.660;23.316;2023-02-26T06:14:55;11.43;;;3.70;;
6089;SDS011;3073;42.660;23.316;2023-02-26T06:17:21;15.13;;;5.17;;
6089;SDS011;3073;42.660;23.316;2023-02-26T06:19:48;14.83;;;2.93;;
6089;SDS011;3073;42.660;23.316;2023-02-26T06:22:17;28.07;;;3.73;;
6089;SDS011;3073;42.660;23.316;2023-02-26T06:24:44;23.17;;;3.93;;
6089;SDS011;3073;42.660;23.316;2023-02-26T06:27:11;23.90;;;4.60;;
6089;SDS011;3073;42.660;23.316;2023-02-26T06:29:38;21.17;;;3.37;;
6089;SDS011;3073;42.660;23.316;2023-02-26T06:32:05;24.53;;;4.20;;
6089;SDS011;3073;42.660;23.316;2023-02-26T06:34:32;29.63;;;4.90;;
6089;SDS011;3073;42.660;23.316;2023-02-26T06:36:59;12.13;;;3.47;;
6089;SDS011;3073;42.660;23.316;2023-02-26T06:39:27;19.00;;;4.30;;
6089;SDS011;3073;42.660;23.316;2023-02-26T06:41:54;22.37;;;4.30;;
6089;SDS011;3073;42.660;23.316;2023-02-26T06:44:21;33.07;;;4.27;;
6089;SDS011;3073;42.660;23.316;2023-02-26T06:46:48;23.57;;;4.83;;
6089;SDS011;3073;42.660;23.316;2023-02-26T06:49:14;17.60;;;3.97;;
6089;SDS011;3073;42.660;23.316;2023-02-26T06:51:41;15.57;;;4.10;;
6089;SDS011;3073;42.660;23.316;2023-02-26T06:54:08;16.10;;;4.17;;
6089;SDS011;3073;42.660;23.316;2023-02-26T06:56:36;13.07;;;3.17;;
6089;SDS011;3073;42.660;23.316;2023-02-26T06:59:03;25.77;;;3.70;;
6089;SDS011;3073;42.660;23.316;2023-02-26T07:01:30;36.70;;;6.03;;
6089;SDS011;3073;42.660;23.316;2023-02-26T07:03:57;19.23;;;3.80;;
6089;SDS011;3073;42.660;23.316;2023-02-26T07:06:24;22.50;;;4.70;;
6089;SDS011;3073;42.660;23.316;2023-02-26T07:08:51;18.90;;;3.13;;
6089;SDS011;3073;42.660;23.316;2023-02-26T07:11:18;28.93;;;5.13;;
6089;SDS011;3073;42.660;23.316;2023-02-26T07:13:46;26.87;;;4.20;;
6089;SDS011;3073;42.660;23.316;2023-02-26T07:16:16;24.17;;;5.07;;
6089;SDS011;3073;42.660;23.316;2023-02-26T07:18:42;35.17;;;4.53;;
6089;SDS011;3073;42.660;23.316;2023-02-26T07:21:09;16.27;;;3.73;;
6089;SDS011;3073;42.660;23.316;2023-02-26T07:23:36;23.30;;;5.20;;
6089;SDS011;3073;42.660;23.316;2023-02-26T07:26:03;9.93;;;3.10;;
6089;SDS011;3073;42.660;23.316;2023-02-26T07:28:30;19.90;;;3.60;;
6089;SDS011;3073;42.660;23.316;2023-02-26T07:30:58;30.63;;;5.10;;
6089;SDS011;3073;42.660;23.316;2023-02-26T07:33:25;13.77;;;3.33;;
6089;SDS011;3073;42.660;23.316;2023-02-26T07:35:52;20.93;;;4.00;;
6089;SDS011;3073;42.660;23.316;2023-02-26T07:38:20;28.40;;;5.27;;
6089;SDS011;3073;42.660;23.316;2023-02-26T07:40:46;19.10;;;3.50;;
6089;SDS011;3073;42.660;23.316;2023-02-26T07:43:13;26.17;;;4.53;;
6089;SDS011;3073;42.660;23.316;2023-02-26T07:45:40;14.90;;;3.60;;
6089;SDS011;3073;42.660;23.316;2023-02-26T07:48:09;16.10;;;4.10;;
6089;SDS011;3073;42.660;23.316;2023-02-26T07:50:38;24.47;;;5.03;;
6089;SDS011;3073;42.660;23.316;2023-02-26T07:53:05;24.03;;;3.70;;
6089;SDS011;3073;42.660;23.316;2023-02-26T07:55:32;20.77;;;4.03;;
6089;SDS011;3073;42.660;23.316;2023-02-26T07:57:59;16.50;;;3.30;;
6089;SDS011;3073;42.660;23.316;2023-02-26T08:00:26;23.00;;;4.20;;
6089;SDS011;3073;42.660;23.316;2023-02-26T08:02:53;38.27;;;5.47;;
6089;SDS011;3073;42.660;23.316;2023-02-26T08:05:21;21.10;;;3.90;;
6089;SDS011;3073;42.660;23.316;2023-02-26T08:07:48;17.30;;;4.37;;
6089;SDS011;3073;42.660;23.316;2023-02-26T08:10:15;24.73;;;4.00;;
6089;SDS011;3073;42.660;23.316;2023-02-26T08:12:41;34.67;;;5.10;;
6089;SDS011;3073;42.660;23.316;2023-02-26T08:15:09;12.30;;;3.53;;
6089;SDS011;3073;42.660;23.316;2023-02-26T08:17:38;17.80;;;4.30;;
6089;SDS011;3073;42.660;23.316;2023-02-26T08:20:07;23.60;;;3.87;;
6089;SDS011;3073;42.660;23.316;2023-02-26T08:22:42;24.27;;;4.13;;
6089;SDS011;3073;42.660;23.316;2023-02-26T08:25:12;19.27;;;4.07;;
6089;SDS011;3073;42.660;23.316;2023-02-26T08:27:39;21.60;;;4.17;;
6089;SDS011;3073;42.660;23.316;2023-02-26T08:30:07;24.30;;;4.17;;
6089;SDS011;3073;42.660;23.316;2023-02-26T08:32:35;29.83;;;4.83;;
6089;SDS011;3073;42.660;23.316;2023-02-26T08:35:04;22.93;;;4.70;;
6089;SDS011;3073;42.660;23.316;2023-02-26T08:37:31;11.60;;;4.10;;
6089;SDS011;3073;42.660;23.316;2023-02-26T08:39:59;19.83;;;4.27;;
6089;SDS011;3073;42.660;23.316;2023-02-26T08:42:26;23.47;;;4.77;;
6089;SDS011;3073;42.660;23.316;2023-02-26T08:44:53;26.20;;;4.20;;
6089;SDS011;3073;42.660;23.316;2023-02-26T08:47:20;30.23;;;4.97;;
6089;SDS011;3073;42.660;23.316;2023-02-26T08:49:47;36.33;;;4.77;;
6089;SDS011;3073;42.660;23.316;2023-02-26T08:52:14;20.67;;;4.47;;
6089;SDS011;3073;42.660;23.316;2023-02-26T08:54:40;27.80;;;5.13;;
6089;SDS011;3073;42.660;23.316;2023-02-26T08:57:09;26.53;;;4.17;;
6089;SDS011;3073;42.660;23.316;2023-02-26T08:59:35;13.90;;;4.00;;
6089;SDS011;3073;42.660;23.316;2023-02-26T09:02:02;22.60;;;3.90;;
6089;SDS011;3073;42.660;23.316;2023-02-26T09:04:29;17.03;;;4.60;;
6089;SDS011;3073;42.660;23.316;2023-02-26T09:06:56;19.53;;;4.37;;
6089;SDS011;3073;42.660;23.316;2023-02-26T09:09:23;25.70;;;5.23;;
6089;SDS011;3073;42.660;23.316;2023-02-26T09:11:49;24.80;;;4.83;;
6089;SDS011;3073;42.660;23.316;2023-02-26T09:14:18;20.10;;;3.97;;
6089;SDS011;3073;42.660;23.316;2023-02-26T09:16:45;24.37;;;4.83;;
6089;SDS011;3073;42.660;23.316;2023-02-26T09:19:12;27.30;;;3.83;;
6089;SDS011;3073;42.660;23.316;2023-02-26T09:21:39;19.80;;;4.60;;
6089;SDS011;3073;42.660;23.316;2023-02-26T09:24:06;19.00;;;4.20;;
6089;SDS011;3073;42.660;23.316;2023-02-26T09:26:33;15.20;;;4.43;;
6089;SDS011;3073;42.660;23.316;2023-02-26T09:29:00;25.93;;;4.50;;
6089;SDS011;3073;42.660;23.316;2023-02-26T09:31:28;21.13;;;5.40;;
6089;SDS011;3073;42.660;23.316;2023-02-26T09:33:55;20.20;;;5.30;;
6089;SDS011;3073;42.660;23.316;2023-02-26T09:36:21;30.67;;;4.73;;
6089;SDS011;3073;42.660;23.316;2023-02-26T09:38:48;35.87;;;5.43;;
6089;SDS011;3073;42.660;23.316;2023-02-26T09:41:16;45.90;;;6.17;;
6089;SDS011;3073;42.660;23.316;2023-02-26T09:47:00;25.53;;;5.60;;
6089;SDS011;3073;42.660;23.316;2023-02-26T09:49:33;19.63;;;5.23;;
6089;SDS011;3073;42.660;23.316;2023-02-26T09:52:13;23.13;;;6.13;;
6089;SDS011;3073;42.660;23.316;2023-02-26T09:54:45;29.47;;;4.70;;
6089;SDS011;3073;42.660;23.316;2023-02-26T09:57:19;29.53;;;6.30;;
6089;SDS011;3073;42.660;23.316;2023-02-26T09:59:51;23.23;;;6.13;;
6089;SDS011;3073;42.660;23.316;2023-02-26T10:02:21;23.97;;;5.40;;
6089;SDS011;3073;42.660;23.316;2023-02-26T10:04:55;31.03;;;6.40;;
6089;SDS011;3073;42.660;23.316;2023-02-26T10:07:31;21.90;;;5.77;;
6089;SDS011;3073;42.660;23.316;2023-02-26T10:10:10;25.63;;;6.30;;
6089;SDS011;3073;42.660;23.316;2023-02-26T10:12:47;17.67;;;6.37;;
6089;SDS011;3073;42.660;23.316;2023-02-26T10:15:19;30.57;;;6.10;;
6089;SDS011;3073;42.660;23.316;2023-02-26T10:17:56;29.80;;;6.53;;
6089;SDS011;3073;42.660;23.316;2023-02-26T10:20:31;23.47;;;5.50;;
6089;SDS011;3073;42.660;23.316;2023-02-26T10:23:04;17.80;;;4.53;;
6089;SDS011;3073;42.660;23.316;2023-02-26T10:25:39;14.03;;;4.03;;
6089;SDS011;3073;42.660;23.316;2023-02-26T10:28:15;12.60;;;3.13;;
6089;SDS011;3073;42.660;23.316;2023-02-26T10:30:53;30.50;;;4.40;;
6089;SDS011;3073;42.660;23.316;2023-02-26T10:33:31;17.97;;;3.83;;
6089;SDS011;3073;42.660;23.316;2023-02-26T10:36:04;10.30;;;3.63;;
6089;SDS011;3073;42.660;23.316;2023-02-26T10:38:39;18.40;;;4.40;;
6089;SDS011;3073;42.660;23.316;2023-02-26T10:41:09;17.63;;;3.37;;
6089;SDS011;3073;42.660;23.316;2023-02-26T10:43:41;18.53;;;4.70;;
6089;SDS011;3073;42.660;23.316;2023-02-26T10:46:17;17.73;;;4.17;;
6089;SDS011;3073;42.660;23.316;2023-02-26T10:48:58;21.07;;;3.87;;
6089;SDS011;3073;42.660;23.316;2023-02-26T10:51:38;16.47;;;3.83;;
6089;SDS011;3073;42.660;23.316;2023-02-26T10:54:11;16.57;;;3.80;;
6089;SDS011;3073;42.660;23.316;2023-02-26T10:56:42;15.77;;;4.90;;
6089;SDS011;3073;42.660;23.316;2023-02-26T10:59:08;13.33;;;4.20;;
6089;SDS011;3073;42.660;23.316;2023-02-26T11:01:35;14.47;;;4.57;;
6089;SDS011;3073;42.660;23.316;2023-02-26T11:04:04;26.10;;;4.67;;
6089;SDS011;3073;42.660;23.316;2023-02-26T11:06:35;20.20;;;4.77;;
6089;SDS011;3073;42.660;23.316;2023-02-26T11:09:11;22.23;;;3.90;;
6089;SDS011;3073;42.660;23.316;2023-02-26T11:11:50;16.93;;;4.40;;
6089;SDS011;3073;42.660;23.316;2023-02-26T11:14:19;25.53;;;4.60;;
6089;SDS011;3073;42.660;23.316;2023-02-26T11:16:48;10.73;;;3.97;;
6089;SDS011;3073;42.660;23.316;2023-02-26T11:19:19;11.93;;;3.93;;
6089;SDS011;3073;42.660;23.316;2023-02-26T11:21:51;15.63;;;4.30;;
6089;SDS011;3073;42.660;23.316;2023-02-26T11:24:19;14.30;;;4.17;;
6089;SDS011;3073;42.660;23.316;2023-02-26T11:26:52;21.83;;;4.80;;
6089;SDS011;3073;42.660;23.316;2023-02-26T11:29:21;18.53;;;4.73;;
6089;SDS011;3073;42.660;23.316;2023-02-26T11:31:50;16.63;;;5.00;;
6089;SDS011;3073;42.660;23.316;2023-02-26T11:34:20;30.90;;;6.20;;
6089;SDS011;3073;42.660;23.316;2023-02-26T11:36:48;13.57;;;4.20;;
6089;SDS011;3073;42.660;23.316;2023-02-26T11:39:16;18.83;;;4.20;;
6089;SDS011;3073;42.660;23.316;2023-02-26T11:41:45;19.30;;;4.57;;
6089;SDS011;3073;42.660;23.316;2023-02-26T11:44:14;22.90;;;5.30;;
6089;SDS011;3073;42.660;23.316;2023-02-26T11:46:45;22.20;;;5.43;;
6089;SDS011;3073;42.660;23.316;2023-02-26T11:49:19;16.17;;;4.97;;
6089;SDS011;3073;42.660;23.316;2023-02-26T11:51:59;26.60;;;5.47;;
6089;SDS011;3073;42.660;23.316;2023-02-26T11:54:30;24.53;;;4.27;;
6089;SDS011;3073;42.660;23.316;2023-02-26T11:57:01;23.90;;;5.63;;
6089;SDS011;3073;42.660;23.316;2023-02-26T11:59:32;23.27;;;4.23;;
6089;SDS011;3073;42.660;23.316;2023-02-26T12:02:01;22.37;;;5.13;;
6089;SDS011;3073;42.660;23.316;2023-02-26T12:04:38;22.00;;;5.10;;
6089;SDS011;3073;42.660;23.316;2023-02-26T12:07:10;15.37;;;4.03;;
6089;SDS011;3073;42.660;23.316;2023-02-26T12:09:41;23.30;;;4.80;;
6089;SDS011;3073;42.660;23.316;2023-02-26T12:12:12;39.00;;;6.30;;
6089;SDS011;3073;42.660;23.316;2023-02-26T12:15:01;28.93;;;6.03;;
6089;SDS011;3073;42.660;23.316;2023-02-26T12:17:47;28.50;;;4.73;;
6089;SDS011;3073;42.660;23.316;2023-02-26T12:20:25;26.47;;;5.37;;
6089;SDS011;3073;42.660;23.316;2023-02-26T12:23:05;38.90;;;4.43;;
6089;SDS011;3073;42.660;23.316;2023-02-26T12:25:47;16.13;;;4.90;;
6089;SDS011;3073;42.660;23.316;2023-02-26T12:28:36;15.57;;;4.27;;
6089;SDS011;3073;42.660;23.316;2023-02-26T12:31:18;19.57;;;5.10;;
6089;SDS011;3073;42.660;23.316;2023-02-26T12:33:57;25.40;;;4.53;;
6089;SDS011;3073;42.660;23.316;2023-02-26T12:36:40;25.93;;;5.30;;
6089;SDS011;3073;42.660;23.316;2023-02-26T12:39:22;27.17;;;5.77;;
6089;SDS011;3073;42.660;23.316;2023-02-26T12:42:01;22.07;;;4.63;;
6089;SDS011;3073;42.660;23.316;2023-02-26T12:44:49;25.53;;;7.00;;
6089;SDS011;3073;42.660;23.316;2023-02-26T12:47:29;28.10;;;6.87;;
6089;SDS011;3073;42.660;23.316;2023-02-26T12:50:07;35.97;;;5.70;;
6089;SDS011;3073;42.660;23.316;2023-02-26T12:55:43;19.47;;;5.03;;
6089;SDS011;3073;42.660;23.316;2023-02-26T12:58:25;31.40;;;6.77;;
6089;SDS011;3073;42.660;23.316;2023-02-26T13:01:27;25.43;;;5.93;;
6089;SDS011;3073;42.660;23.316;2023-02-26T13:07:13;22.00;;;4.53;;
6089;SDS011;3073;42.660;23.316;2023-02-26T13:09:51;17.63;;;5.23;;
6089;SDS011;3073;42.660;23.316;2023-02-26T13:12:32;17.07;;;6.27;;
6089;SDS011;3073;42.660;23.316;2023-02-26T13:15:19;29.43;;;6.70;;
6089;SDS011;3073;42.660;23.316;2023-02-26T13:17:59;30.90;;;6.87;;
6089;SDS011;3073;42.660;23.316;2023-02-26T13:20:30;43.77;;;5.73;;
6089;SDS011;3073;42.660;23.316;2023-02-26T13:23:00;38.30;;;8.50;;
6089;SDS011;3073;42.660;23.316;2023-02-26T13:25:32;27.93;;;6.00;;
6089;SDS011;3073;42.660;23.316;2023-02-26T13:28:06;26.07;;;6.13;;
6089;SDS011;3073;42.660;23.316;2023-02-26T13:30:57;15.00;;;5.17;;
6089;SDS011;3073;42.660;23.316;2023-02-26T13:33:27;18.07;;;4.10;;
6089;SDS011;3073;42.660;23.316;2023-02-26T13:35:56;20.13;;;6.40;;
6089;SDS011;3073;42.660;23.316;2023-02-26T13:38:29;29.77;;;6.27;;
6089;SDS011;3073;42.660;23.316;2023-02-26T13:41:06;19.00;;;5.60;;
6089;SDS011;3073;42.660;23.316;2023-02-26T13:43:46;31.40;;;6.60;;
6089;SDS011;3073;42.660;23.316;2023-02-26T13:46:28;23.80;;;5.80;;
6089;SDS011;3073;42.660;23.316;2023-02-26T13:49:07;31.07;;;5.33;;
6089;SDS011;3073;42.660;23.316;2023-02-26T13:51:43;32.23;;;6.00;;
6089;SDS011;3073;42.660;23.316;2023-02-26T13:57:05;13.50;;;4.40;;
6089;SDS011;3073;42.660;23.316;2023-02-26T13:59:51;25.20;;;5.47;;
6089;SDS011;3073;42.660;23.316;2023-02-26T14:08:23;17.13;;;4.57;;
6089;SDS011;3073;42.660;23.316;2023-02-26T14:16:41;44.20;;;5.77;;
6089;SDS011;3073;42.660;23.316;2023-02-26T14:19:21;22.00;;;5.60;;
6089;SDS011;3073;42.660;23.316;2023-02-26T14:21:51;25.47;;;5.47;;
6089;SDS011;3073;42.660;23.316;2023-02-26T14:24:22;34.90;;;5.63;;
6089;SDS011;3073;42.660;23.316;2023-02-26T14:27:22;38.47;;;6.57;;
6089;SDS011;3073;42.660;23.316;2023-02-26T14:30:02;31.67;;;6.50;;
6089;SDS011;3073;42.660;23.316;2023-02-26T14:32:46;33.23;;;7.27;;
6089;SDS011;3073;42.660;23.316;2023-02-26T14:35:15;31.97;;;6.80;;
6089;SDS011;3073;42.660;23.316;2023-02-26T14:37:45;34.17;;;6.40;;
6089;SDS011;3073;42.660;23.316;2023-02-26T14:40:28;37.40;;;7.67;;
6089;SDS011;3073;42.660;23.316;2023-02-26T14:43:01;45.30;;;8.60;;
6089;SDS011;3073;42.660;23.316;2023-02-26T14:45:31;26.93;;;6.43;;
6089;SDS011;3073;42.660;23.316;2023-02-26T14:48:04;35.33;;;7.37;;
6089;SDS011;3073;42.660;23.316;2023-02-26T14:50:35;31.83;;;8.27;;
6089;SDS011;3073;42.660;23.316;2023-02-26T14:56:10;33.60;;;7.50;;
6089;SDS011;3073;42.660;23.316;2023-02-26T15:01:44;48.97;;;8.00;;
6089;SDS011;3073;42.660;23.316;2023-02-26T15:04:19;47.83;;;8.93;;
6089;SDS011;3073;42.660;23.316;2023-02-26T15:12:56;34.23;;;7.40;;
6089;SDS011;3073;42.660;23.316;2023-02-26T15:15:37;33.33;;;6.90;;
6089;SDS011;3073;42.660;23.316;2023-02-26T15:18:24;49.27;;;10.63;;
6089;SDS011;3073;42.660;23.316;2023-02-26T15:21:27;51.07;;;9.13;;
6089;SDS011;3073;42.660;23.316;2023-02-26T15:24:04;34.70;;;7.80;;
6089;SDS011;3073;42.660;23.316;2023-02-26T15:26:37;51.30;;;9.10;;
6089;SDS011;3073;42.660;23.316;2023-02-26T15:29:09;43.47;;;7.20;;
6089;SDS011;3073;42.660;23.316;2023-02-26T15:31:40;40.20;;;8.30;;
6089;SDS011;3073;42.660;23.316;2023-02-26T15:34:09;34.50;;;7.47;;
6089;SDS011;3073;42.660;23.316;2023-02-26T15:36:43;33.27;;;6.67;;
6089;SDS011;3073;42.660;23.316;2023-02-26T15:39:12;32.67;;;7.33;;
6089;SDS011;3073;42.660;23.316;2023-02-26T15:41:41;40.27;;;8.17;;
6089;SDS011;3073;42.660;23.316;2023-02-26T15:44:12;36.33;;;6.40;;
6089;SDS011;3073;42.660;23.316;2023-02-26T15:46:41;35.50;;;8.53;;
6089;SDS011;3073;42.660;23.316;2023-02-26T15:49:11;37.00;;;7.73;;
6089;SDS011;3073;42.660;23.316;2023-02-26T15:51:43;33.27;;;6.93;;
6089;SDS011;3073;42.660;23.316;2023-02-26T15:54:12;34.20;;;7.00;;